sensor_id;sensor_type;location;lat;lon;timestamp;P1;durP1;ratioP1;P2;durP2;ratioP2
21107;SDS011;10712;52.944;9.098;2023-07-02T00:00:02;2.72;;;1.80;;
21107;SDS011;10712;52.944;9.098;2023-07-02T00:02:36;4.50;;;1.88;;
21107;SDS011;10712;52.944;9.098;2023-07-02T00:05:02;5.20;;;1.70;;
21107;SDS011;10712;52.944;9.098;2023-07-02T00:07:29;6.45;;;3.05;;
21107;SDS011;10712;52.944;9.098;2023-07-02T00:09:56;3.20;;;2.20;;
21107;SDS011;10712;52.944;9.098;2023-07-02T00:12:22;3.60;;;2.25;;
21107;SDS011;10712;52.944;9.098;2023-07-02T00:14:47;3.17;;;2.20;;
21107;SDS011;10712;52.944;9.098;2023-07-02T00:17:13;4.05;;;2.45;;
21107;SDS011;10712;52.944;9.098;2023-07-02T00:19:39;2.55;;;2.25;;
21107;SDS011;10712;52.944;9.098;2023-07-02T00:22:09;9.23;;;2.45;;
21107;SDS011;10712;52.944;9.098;2023-07-02T00:24:35;3.20;;;2.30;;
21107;SDS011;10712;52.944;9.098;2023-07-02T00:27:02;5.05;;;2.42;;
21107;SDS011;10712;52.944;9.098;2023-07-02T00:29:29;3.33;;;2.30;;
21107;SDS011;10712;52.944;9.098;2023-07-02T00:31:54;6.38;;;2.25;;
21107;SDS011;10712;52.944;9.098;2023-07-02T00:34:22;5.35;;;2.50;;
21107;SDS011;10712;52.944;9.098;2023-07-02T00:36:48;5.88;;;2.50;;
21107;SDS011;10712;52.944;9.098;2023-07-02T00:39:15;7.05;;;3.00;;
21107;SDS011;10712;52.944;9.098;2023-07-02T00:41:42;3.05;;;2.53;;
21107;SDS011;10712;52.944;9.098;2023-07-02T00:44:12;5.70;;;2.85;;
21107;SDS011;10712;52.944;9.098;2023-07-02T00:46:38;3.05;;;2.25;;
21107;SDS011;10712;52.944;9.098;2023-07-02T00:49:05;6.00;;;2.60;;
21107;SDS011;10712;52.944;9.098;2023-07-02T00:51:33;4.70;;;2.53;;
21107;SDS011;10712;52.944;9.098;2023-07-02T00:54:00;4.70;;;3.10;;
21107;SDS011;10712;52.944;9.098;2023-07-02T00:56:26;2.88;;;2.35;;
21107;SDS011;10712;52.944;9.098;2023-07-02T00:58:53;6.35;;;3.13;;
21107;SDS011;10712;52.944;9.098;2023-07-02T01:01:24;4.90;;;3.10;;
21107;SDS011;10712;52.944;9.098;2023-07-02T01:03:56;3.17;;;2.22;;
21107;SDS011;10712;52.944;9.098;2023-07-02T01:06:30;3.15;;;2.17;;
21107;SDS011;10712;52.944;9.098;2023-07-02T01:09:05;5.43;;;2.53;;
21107;SDS011;10712;52.944;9.098;2023-07-02T01:11:33;3.25;;;2.95;;
21107;SDS011;10712;52.944;9.098;2023-07-02T01:14:16;5.45;;;3.30;;
21107;SDS011;10712;52.944;9.098;2023-07-02T01:17:01;4.22;;;2.55;;
21107;SDS011;10712;52.944;9.098;2023-07-02T01:19:41;6.28;;;2.85;;
21107;SDS011;10712;52.944;9.098;2023-07-02T01:22:19;6.63;;;3.25;;
21107;SDS011;10712;52.944;9.098;2023-07-02T01:24:47;6.93;;;3.08;;
21107;SDS011;10712;52.944;9.098;2023-07-02T01:27:17;4.90;;;2.80;;
21107;SDS011;10712;52.944;9.098;2023-07-02T01:29:45;7.40;;;2.85;;
21107;SDS011;10712;52.944;9.098;2023-07-02T01:32:15;3.85;;;3.08;;
21107;SDS011;10712;52.944;9.098;2023-07-02T01:34:41;6.28;;;2.90;;
21107;SDS011;10712;52.944;9.098;2023-07-02T01:39:41;4.32;;;3.28;;
21107;SDS011;10712;52.944;9.098;2023-07-02T01:42:09;3.55;;;3.22;;
21107;SDS011;10712;52.944;9.098;2023-07-02T01:44:42;3.10;;;2.80;;
21107;SDS011;10712;52.944;9.098;2023-07-02T01:47:10;5.20;;;3.30;;
21107;SDS011;10712;52.944;9.098;2023-07-02T01:49:36;6.20;;;3.20;;
21107;SDS011;10712;52.944;9.098;2023-07-02T01:52:03;7.53;;;3.45;;
21107;SDS011;10712;52.944;9.098;2023-07-02T01:54:30;6.45;;;3.30;;
21107;SDS011;10712;52.944;9.098;2023-07-02T01:56:57;9.02;;;3.67;;
21107;SDS011;10712;52.944;9.098;2023-07-02T01:59:23;5.18;;;3.00;;
21107;SDS011;10712;52.944;9.098;2023-07-02T02:01:50;6.72;;;3.45;;
21107;SDS011;10712;52.944;9.098;2023-07-02T02:04:16;6.70;;;3.63;;
21107;SDS011;10712;52.944;9.098;2023-07-02T02:06:42;6.25;;;3.35;;
21107;SDS011;10712;52.944;9.098;2023-07-02T02:09:10;9.27;;;3.65;;
21107;SDS011;10712;52.944;9.098;2023-07-02T02:11:40;8.55;;;4.10;;
21107;SDS011;10712;52.944;9.098;2023-07-02T02:14:09;8.00;;;3.63;;
21107;SDS011;10712;52.944;9.098;2023-07-02T02:16:35;9.00;;;3.95;;
21107;SDS011;10712;52.944;9.098;2023-07-02T02:19:01;9.20;;;4.10;;
21107;SDS011;10712;52.944;9.098;2023-07-02T02:21:28;5.93;;;3.90;;
21107;SDS011;10712;52.944;9.098;2023-07-02T02:23:54;8.23;;;4.25;;
21107;SDS011;10712;52.944;9.098;2023-07-02T02:26:20;10.00;;;4.03;;
21107;SDS011;10712;52.944;9.098;2023-07-02T02:28:47;8.15;;;3.97;;
21107;SDS011;10712;52.944;9.098;2023-07-02T02:31:14;7.00;;;4.32;;
21107;SDS011;10712;52.944;9.098;2023-07-02T02:33:41;8.75;;;4.10;;
21107;SDS011;10712;52.944;9.098;2023-07-02T02:36:07;8.95;;;4.47;;
21107;SDS011;10712;52.944;9.098;2023-07-02T02:38:33;6.47;;;4.38;;
21107;SDS011;10712;52.944;9.098;2023-07-02T02:41:00;8.13;;;4.75;;
21107;SDS011;10712;52.944;9.098;2023-07-02T02:43:30;5.22;;;3.78;;
21107;SDS011;10712;52.944;9.098;2023-07-02T02:45:56;8.30;;;4.18;;
21107;SDS011;10712;52.944;9.098;2023-07-02T02:48:22;5.30;;;3.65;;
21107;SDS011;10712;52.944;9.098;2023-07-02T02:50:49;9.20;;;4.95;;
21107;SDS011;10712;52.944;9.098;2023-07-02T02:53:15;12.02;;;4.80;;
21107;SDS011;10712;52.944;9.098;2023-07-02T02:55:41;9.65;;;4.45;;
21107;SDS011;10712;52.944;9.098;2023-07-02T02:58:06;9.90;;;4.88;;
21107;SDS011;10712;52.944;9.098;2023-07-02T03:00:32;10.88;;;4.65;;
21107;SDS011;10712;52.944;9.098;2023-07-02T03:02:58;12.23;;;5.15;;
21107;SDS011;10712;52.944;9.098;2023-07-02T03:05:25;7.20;;;4.53;;
21107;SDS011;10712;52.944;9.098;2023-07-02T03:07:51;8.48;;;4.70;;
21107;SDS011;10712;52.944;9.098;2023-07-02T03:10:17;8.50;;;4.22;;
21107;SDS011;10712;52.944;9.098;2023-07-02T03:12:43;7.53;;;4.32;;
21107;SDS011;10712;52.944;9.098;2023-07-02T03:15:09;7.05;;;4.70;;
21107;SDS011;10712;52.944;9.098;2023-07-02T03:17:35;12.73;;;5.13;;
21107;SDS011;10712;52.944;9.098;2023-07-02T03:20:02;7.95;;;4.22;;
21107;SDS011;10712;52.944;9.098;2023-07-02T03:22:33;9.45;;;4.35;;
21107;SDS011;10712;52.944;9.098;2023-07-02T03:24:59;8.25;;;4.90;;
21107;SDS011;10712;52.944;9.098;2023-07-02T03:27:25;8.88;;;4.28;;
21107;SDS011;10712;52.944;9.098;2023-07-02T03:29:51;7.85;;;5.25;;
21107;SDS011;10712;52.944;9.098;2023-07-02T03:32:17;6.53;;;4.60;;
21107;SDS011;10712;52.944;9.098;2023-07-02T03:34:43;13.68;;;5.05;;
21107;SDS011;10712;52.944;9.098;2023-07-02T03:37:09;11.07;;;4.78;;
21107;SDS011;10712;52.944;9.098;2023-07-02T03:39:35;8.32;;;4.80;;
21107;SDS011;10712;52.944;9.098;2023-07-02T03:42:01;7.50;;;4.40;;
21107;SDS011;10712;52.944;9.098;2023-07-02T03:44:27;8.60;;;4.40;;
21107;SDS011;10712;52.944;9.098;2023-07-02T03:46:52;7.90;;;4.20;;
21107;SDS011;10712;52.944;9.098;2023-07-02T03:49:18;9.43;;;5.32;;
21107;SDS011;10712;52.944;9.098;2023-07-02T03:51:44;10.30;;;5.28;;
21107;SDS011;10712;52.944;9.098;2023-07-02T03:54:10;9.95;;;4.82;;
21107;SDS011;10712;52.944;9.098;2023-07-02T03:56:36;11.88;;;5.50;;
21107;SDS011;10712;52.944;9.098;2023-07-02T03:59:02;8.38;;;5.30;;
21107;SDS011;10712;52.944;9.098;2023-07-02T04:01:27;9.77;;;5.05;;
21107;SDS011;10712;52.944;9.098;2023-07-02T04:03:53;7.63;;;4.80;;
21107;SDS011;10712;52.944;9.098;2023-07-02T04:06:21;10.82;;;5.57;;
21107;SDS011;10712;52.944;9.098;2023-07-02T04:08:47;11.57;;;5.15;;
21107;SDS011;10712;52.944;9.098;2023-07-02T04:11:13;5.78;;;5.03;;
21107;SDS011;10712;52.944;9.098;2023-07-02T04:13:39;10.52;;;5.13;;
21107;SDS011;10712;52.944;9.098;2023-07-02T04:16:05;6.47;;;4.97;;
21107;SDS011;10712;52.944;9.098;2023-07-02T04:18:31;7.93;;;4.93;;
21107;SDS011;10712;52.944;9.098;2023-07-02T04:20:57;8.50;;;4.93;;
21107;SDS011;10712;52.944;9.098;2023-07-02T04:23:24;7.53;;;4.10;;
21107;SDS011;10712;52.944;9.098;2023-07-02T04:25:50;7.68;;;4.82;;
21107;SDS011;10712;52.944;9.098;2023-07-02T04:28:16;10.00;;;5.07;;
21107;SDS011;10712;52.944;9.098;2023-07-02T04:30:42;7.85;;;4.70;;
21107;SDS011;10712;52.944;9.098;2023-07-02T04:33:08;5.38;;;4.28;;
21107;SDS011;10712;52.944;9.098;2023-07-02T04:35:34;8.15;;;4.53;;
21107;SDS011;10712;52.944;9.098;2023-07-02T04:38:00;9.45;;;5.05;;
21107;SDS011;10712;52.944;9.098;2023-07-02T04:40:26;8.25;;;5.00;;
21107;SDS011;10712;52.944;9.098;2023-07-02T04:42:52;11.35;;;5.63;;
21107;SDS011;10712;52.944;9.098;2023-07-02T04:45:22;8.88;;;5.63;;
21107;SDS011;10712;52.944;9.098;2023-07-02T04:47:50;6.13;;;4.38;;
21107;SDS011;10712;52.944;9.098;2023-07-02T04:50:17;7.95;;;4.95;;
21107;SDS011;10712;52.944;9.098;2023-07-02T04:52:44;8.77;;;5.70;;
21107;SDS011;10712;52.944;9.098;2023-07-02T04:55:10;7.68;;;5.05;;
21107;SDS011;10712;52.944;9.098;2023-07-02T04:57:36;11.80;;;5.43;;
21107;SDS011;10712;52.944;9.098;2023-07-02T05:00:02;14.60;;;5.95;;
21107;SDS011;10712;52.944;9.098;2023-07-02T05:02:31;9.90;;;5.45;;
21107;SDS011;10712;52.944;9.098;2023-07-02T05:04:57;15.23;;;6.07;;
21107;SDS011;10712;52.944;9.098;2023-07-02T05:07:22;17.60;;;6.35;;
21107;SDS011;10712;52.944;9.098;2023-07-02T05:09:48;14.27;;;5.53;;
21107;SDS011;10712;52.944;9.098;2023-07-02T05:12:16;16.13;;;6.32;;
21107;SDS011;10712;52.944;9.098;2023-07-02T05:14:43;15.27;;;6.32;;
21107;SDS011;10712;52.944;9.098;2023-07-02T05:17:09;19.13;;;6.47;;
21107;SDS011;10712;52.944;9.098;2023-07-02T05:19:35;18.92;;;6.53;;
21107;SDS011;10712;52.944;9.098;2023-07-02T05:22:00;12.25;;;5.68;;
21107;SDS011;10712;52.944;9.098;2023-07-02T05:24:26;12.07;;;5.55;;
21107;SDS011;10712;52.944;9.098;2023-07-02T05:26:52;22.58;;;7.80;;
21107;SDS011;10712;52.944;9.098;2023-07-02T05:29:18;19.98;;;7.53;;
21107;SDS011;10712;52.944;9.098;2023-07-02T05:31:44;16.95;;;7.15;;
21107;SDS011;10712;52.944;9.098;2023-07-02T05:34:10;23.38;;;7.03;;
21107;SDS011;10712;52.944;9.098;2023-07-02T05:36:35;19.67;;;7.03;;
21107;SDS011;10712;52.944;9.098;2023-07-02T05:39:02;17.98;;;6.45;;
21107;SDS011;10712;52.944;9.098;2023-07-02T05:41:28;19.42;;;6.72;;
21107;SDS011;10712;52.944;9.098;2023-07-02T05:43:58;21.52;;;7.25;;
21107;SDS011;10712;52.944;9.098;2023-07-02T05:46:24;19.63;;;7.13;;
21107;SDS011;10712;52.944;9.098;2023-07-02T05:48:51;20.23;;;8.98;;
21107;SDS011;10712;52.944;9.098;2023-07-02T05:51:20;16.10;;;6.82;;
21107;SDS011;10712;52.944;9.098;2023-07-02T05:53:46;19.02;;;7.68;;
21107;SDS011;10712;52.944;9.098;2023-07-02T05:56:13;20.63;;;7.47;;
21107;SDS011;10712;52.944;9.098;2023-07-02T05:58:38;21.58;;;7.97;;
21107;SDS011;10712;52.944;9.098;2023-07-02T06:01:04;16.30;;;7.57;;
21107;SDS011;10712;52.944;9.098;2023-07-02T06:03:31;33.57;;;8.37;;
21107;SDS011;10712;52.944;9.098;2023-07-02T06:05:57;21.17;;;8.00;;
21107;SDS011;10712;52.944;9.098;2023-07-02T06:08:23;20.17;;;7.95;;
21107;SDS011;10712;52.944;9.098;2023-07-02T06:10:49;19.77;;;8.07;;
21107;SDS011;10712;52.944;9.098;2023-07-02T06:13:15;28.63;;;8.15;;
21107;SDS011;10712;52.944;9.098;2023-07-02T06:15:41;18.13;;;7.80;;
21107;SDS011;10712;52.944;9.098;2023-07-02T06:18:07;23.33;;;7.63;;
21107;SDS011;10712;52.944;9.098;2023-07-02T06:20:33;23.55;;;7.03;;
21107;SDS011;10712;52.944;9.098;2023-07-02T06:22:59;19.13;;;7.75;;
21107;SDS011;10712;52.944;9.098;2023-07-02T06:25:25;18.77;;;7.60;;
21107;SDS011;10712;52.944;9.098;2023-07-02T06:27:51;26.25;;;8.10;;
21107;SDS011;10712;52.944;9.098;2023-07-02T06:30:19;18.35;;;7.25;;
21107;SDS011;10712;52.944;9.098;2023-07-02T06:32:47;27.55;;;8.57;;
21107;SDS011;10712;52.944;9.098;2023-07-02T06:35:12;22.00;;;8.10;;
21107;SDS011;10712;52.944;9.098;2023-07-02T06:37:38;15.60;;;7.22;;
21107;SDS011;10712;52.944;9.098;2023-07-02T06:40:04;20.63;;;8.35;;
21107;SDS011;10712;52.944;9.098;2023-07-02T06:42:31;21.92;;;7.35;;
21107;SDS011;10712;52.944;9.098;2023-07-02T06:44:58;24.70;;;8.13;;
21107;SDS011;10712;52.944;9.098;2023-07-02T06:47:24;23.77;;;8.77;;
21107;SDS011;10712;52.944;9.098;2023-07-02T06:49:51;20.30;;;7.95;;
21107;SDS011;10712;52.944;9.098;2023-07-02T06:52:17;28.50;;;8.95;;
21107;SDS011;10712;52.944;9.098;2023-07-02T06:54:43;26.48;;;7.75;;
21107;SDS011;10712;52.944;9.098;2023-07-02T06:57:09;23.35;;;9.63;;
21107;SDS011;10712;52.944;9.098;2023-07-02T06:59:35;21.63;;;7.38;;
21107;SDS011;10712;52.944;9.098;2023-07-02T07:02:01;21.38;;;7.55;;
21107;SDS011;10712;52.944;9.098;2023-07-02T07:04:27;19.73;;;7.35;;
21107;SDS011;10712;52.944;9.098;2023-07-02T07:06:53;23.38;;;11.65;;
21107;SDS011;10712;52.944;9.098;2023-07-02T07:09:20;23.10;;;8.75;;
21107;SDS011;10712;52.944;9.098;2023-07-02T07:11:47;19.10;;;8.63;;
21107;SDS011;10712;52.944;9.098;2023-07-02T07:14:12;18.27;;;8.30;;
21107;SDS011;10712;52.944;9.098;2023-07-02T07:16:38;18.75;;;7.35;;
21107;SDS011;10712;52.944;9.098;2023-07-02T07:19:04;22.73;;;7.78;;
21107;SDS011;10712;52.944;9.098;2023-07-02T07:21:31;18.92;;;6.97;;
21107;SDS011;10712;52.944;9.098;2023-07-02T07:23:57;21.90;;;8.45;;
21107;SDS011;10712;52.944;9.098;2023-07-02T07:26:22;21.77;;;8.05;;
21107;SDS011;10712;52.944;9.098;2023-07-02T07:28:48;17.67;;;8.05;;
21107;SDS011;10712;52.944;9.098;2023-07-02T07:31:14;24.45;;;7.95;;
21107;SDS011;10712;52.944;9.098;2023-07-02T07:33:40;20.30;;;8.10;;
21107;SDS011;10712;52.944;9.098;2023-07-02T07:36:06;18.10;;;7.15;;
21107;SDS011;10712;52.944;9.098;2023-07-02T07:38:32;21.95;;;8.98;;
21107;SDS011;10712;52.944;9.098;2023-07-02T07:40:57;25.75;;;8.48;;
21107;SDS011;10712;52.944;9.098;2023-07-02T07:43:23;20.92;;;8.40;;
21107;SDS011;10712;52.944;9.098;2023-07-02T07:45:49;19.13;;;7.80;;
21107;SDS011;10712;52.944;9.098;2023-07-02T07:48:15;17.75;;;7.40;;
21107;SDS011;10712;52.944;9.098;2023-07-02T07:50:40;19.85;;;7.07;;
21107;SDS011;10712;52.944;9.098;2023-07-02T07:53:06;16.75;;;7.30;;
21107;SDS011;10712;52.944;9.098;2023-07-02T07:55:32;17.92;;;7.07;;
21107;SDS011;10712;52.944;9.098;2023-07-02T07:57:58;22.35;;;8.18;;
21107;SDS011;10712;52.944;9.098;2023-07-02T08:00:24;16.58;;;7.57;;
21107;SDS011;10712;52.944;9.098;2023-07-02T08:02:50;19.60;;;7.47;;
21107;SDS011;10712;52.944;9.098;2023-07-02T08:05:17;18.50;;;6.75;;
21107;SDS011;10712;52.944;9.098;2023-07-02T08:07:43;18.70;;;7.25;;
21107;SDS011;10712;52.944;9.098;2023-07-02T08:10:09;18.48;;;7.75;;
21107;SDS011;10712;52.944;9.098;2023-07-02T08:12:35;18.25;;;6.75;;
21107;SDS011;10712;52.944;9.098;2023-07-02T08:15:01;19.60;;;6.85;;
21107;SDS011;10712;52.944;9.098;2023-07-02T08:17:28;14.20;;;7.00;;
21107;SDS011;10712;52.944;9.098;2023-07-02T08:19:55;18.35;;;6.10;;
21107;SDS011;10712;52.944;9.098;2023-07-02T08:22:22;14.07;;;6.32;;
21107;SDS011;10712;52.944;9.098;2023-07-02T08:24:48;14.90;;;6.40;;
21107;SDS011;10712;52.944;9.098;2023-07-02T08:27:15;13.90;;;5.93;;
21107;SDS011;10712;52.944;9.098;2023-07-02T08:29:45;18.60;;;6.95;;
21107;SDS011;10712;52.944;9.098;2023-07-02T08:32:11;14.52;;;6.13;;
21107;SDS011;10712;52.944;9.098;2023-07-02T08:34:37;13.88;;;5.57;;
21107;SDS011;10712;52.944;9.098;2023-07-02T08:37:03;18.08;;;6.35;;
21107;SDS011;10712;52.944;9.098;2023-07-02T08:39:29;14.52;;;6.45;;
21107;SDS011;10712;52.944;9.098;2023-07-02T08:41:55;13.27;;;5.57;;
21107;SDS011;10712;52.944;9.098;2023-07-02T08:44:21;17.38;;;6.18;;
21107;SDS011;10712;52.944;9.098;2023-07-02T08:46:47;12.45;;;5.40;;
21107;SDS011;10712;52.944;9.098;2023-07-02T08:49:18;17.50;;;7.03;;
21107;SDS011;10712;52.944;9.098;2023-07-02T08:51:44;15.45;;;5.95;;
21107;SDS011;10712;52.944;9.098;2023-07-02T08:54:11;11.07;;;5.40;;
21107;SDS011;10712;52.944;9.098;2023-07-02T08:56:38;13.73;;;5.22;;
21107;SDS011;10712;52.944;9.098;2023-07-02T08:59:07;11.88;;;5.60;;
21107;SDS011;10712;52.944;9.098;2023-07-02T09:04:20;15.13;;;5.63;;
21107;SDS011;10712;52.944;9.098;2023-07-02T09:06:51;17.02;;;6.00;;
21107;SDS011;10712;52.944;9.098;2023-07-02T09:09:49;11.90;;;4.80;;
21107;SDS011;10712;52.944;9.098;2023-07-02T09:12:48;15.73;;;6.00;;
21107;SDS011;10712;52.944;9.098;2023-07-02T09:15:07;13.18;;;6.32;;
21107;SDS011;10712;52.944;9.098;2023-07-02T09:17:34;18.42;;;6.40;;
21107;SDS011;10712;52.944;9.098;2023-07-02T09:20:05;17.40;;;6.25;;
21107;SDS011;10712;52.944;9.098;2023-07-02T09:22:35;16.08;;;5.72;;
21107;SDS011;10712;52.944;9.098;2023-07-02T09:25:02;14.60;;;6.53;;
21107;SDS011;10712;52.944;9.098;2023-07-02T09:27:37;17.52;;;6.85;;
21107;SDS011;10712;52.944;9.098;2023-07-02T09:30:09;13.38;;;6.40;;
21107;SDS011;10712;52.944;9.098;2023-07-02T09:32:41;13.20;;;6.00;;
21107;SDS011;10712;52.944;9.098;2023-07-02T09:35:09;13.95;;;6.32;;
21107;SDS011;10712;52.944;9.098;2023-07-02T09:37:36;15.45;;;5.97;;
21107;SDS011;10712;52.944;9.098;2023-07-02T09:40:02;11.70;;;6.07;;
21107;SDS011;10712;52.944;9.098;2023-07-02T09:42:32;13.45;;;5.82;;
21107;SDS011;10712;52.944;9.098;2023-07-02T09:45:00;11.73;;;5.45;;
21107;SDS011;10712;52.944;9.098;2023-07-02T09:47:27;13.90;;;6.75;;
21107;SDS011;10712;52.944;9.098;2023-07-02T09:49:59;10.73;;;5.97;;
21107;SDS011;10712;52.944;9.098;2023-07-02T09:52:33;20.33;;;5.93;;
21107;SDS011;10712;52.944;9.098;2023-07-02T09:55:00;10.70;;;6.20;;
21107;SDS011;10712;52.944;9.098;2023-07-02T09:57:29;13.40;;;6.90;;
21107;SDS011;10712;52.944;9.098;2023-07-02T09:59:56;17.30;;;6.50;;
21107;SDS011;10712;52.944;9.098;2023-07-02T10:02:25;14.43;;;6.40;;
21107;SDS011;10712;52.944;9.098;2023-07-02T10:04:51;13.15;;;5.97;;
21107;SDS011;10712;52.944;9.098;2023-07-02T10:07:29;16.33;;;6.10;;
21107;SDS011;10712;52.944;9.098;2023-07-02T10:09:59;13.07;;;5.20;;
21107;SDS011;10712;52.944;9.098;2023-07-02T10:12:26;14.93;;;6.40;;
21107;SDS011;10712;52.944;9.098;2023-07-02T10:14:54;15.75;;;6.05;;
21107;SDS011;10712;52.944;9.098;2023-07-02T10:20:05;16.13;;;5.75;;
21107;SDS011;10712;52.944;9.098;2023-07-02T10:22:45;11.02;;;5.28;;
21107;SDS011;10712;52.944;9.098;2023-07-02T10:25:24;12.10;;;5.00;;
21107;SDS011;10712;52.944;9.098;2023-07-02T10:27:52;8.73;;;4.68;;
21107;SDS011;10712;52.944;9.098;2023-07-02T10:30:17;11.02;;;5.28;;
21107;SDS011;10712;52.944;9.098;2023-07-02T10:32:43;8.93;;;4.57;;
21107;SDS011;10712;52.944;9.098;2023-07-02T10:35:18;15.50;;;6.90;;
21107;SDS011;10712;52.944;9.098;2023-07-02T10:37:45;11.93;;;5.55;;
21107;SDS011;10712;52.944;9.098;2023-07-02T10:40:11;13.23;;;6.43;;
21107;SDS011;10712;52.944;9.098;2023-07-02T10:42:47;15.48;;;6.88;;
21107;SDS011;10712;52.944;9.098;2023-07-02T10:45:15;13.93;;;6.90;;
21107;SDS011;10712;52.944;9.098;2023-07-02T10:47:41;11.48;;;6.30;;
21107;SDS011;10712;52.944;9.098;2023-07-02T10:50:14;17.50;;;7.18;;
21107;SDS011;10712;52.944;9.098;2023-07-02T10:52:42;13.90;;;7.13;;
21107;SDS011;10712;52.944;9.098;2023-07-02T10:55:08;13.48;;;5.90;;
21107;SDS011;10712;52.944;9.098;2023-07-02T10:57:35;13.27;;;6.10;;
21107;SDS011;10712;52.944;9.098;2023-07-02T11:00:04;12.60;;;5.97;;
21107;SDS011;10712;52.944;9.098;2023-07-02T11:02:38;14.88;;;5.65;;
21107;SDS011;10712;52.944;9.098;2023-07-02T11:05:05;14.00;;;5.60;;
21107;SDS011;10712;52.944;9.098;2023-07-02T11:07:37;13.98;;;6.13;;
21107;SDS011;10712;52.944;9.098;2023-07-02T11:10:07;8.55;;;5.10;;
21107;SDS011;10712;52.944;9.098;2023-07-02T11:12:35;16.60;;;5.65;;
21107;SDS011;10712;52.944;9.098;2023-07-02T11:15:12;9.43;;;4.57;;
21107;SDS011;10712;52.944;9.098;2023-07-02T11:17:45;10.93;;;5.05;;
21107;SDS011;10712;52.944;9.098;2023-07-02T11:20:12;9.98;;;4.95;;
21107;SDS011;10712;52.944;9.098;2023-07-02T11:22:39;15.63;;;5.75;;
21107;SDS011;10712;52.944;9.098;2023-07-02T11:27:44;11.65;;;5.57;;
21107;SDS011;10712;52.944;9.098;2023-07-02T11:30:10;13.00;;;5.45;;
21107;SDS011;10712;52.944;9.098;2023-07-02T11:32:47;10.77;;;4.93;;
21107;SDS011;10712;52.944;9.098;2023-07-02T11:35:15;14.25;;;4.95;;
21107;SDS011;10712;52.944;9.098;2023-07-02T11:37:42;13.30;;;5.30;;
21107;SDS011;10712;52.944;9.098;2023-07-02T11:40:09;11.00;;;4.05;;
21107;SDS011;10712;52.944;9.098;2023-07-02T11:42:35;11.98;;;4.20;;
21107;SDS011;10712;52.944;9.098;2023-07-02T11:45:00;7.57;;;2.55;;
21107;SDS011;10712;52.944;9.098;2023-07-02T11:47:26;10.27;;;3.03;;
21107;SDS011;10712;52.944;9.098;2023-07-02T11:49:52;5.88;;;3.15;;
21107;SDS011;10712;52.944;9.098;2023-07-02T11:52:20;5.07;;;2.90;;
21107;SDS011;10712;52.944;9.098;2023-07-02T11:54:46;5.50;;;2.83;;
21107;SDS011;10712;52.944;9.098;2023-07-02T11:57:13;6.13;;;3.25;;
21107;SDS011;10712;52.944;9.098;2023-07-02T11:59:40;7.57;;;2.60;;
21107;SDS011;10712;52.944;9.098;2023-07-02T12:02:06;8.70;;;3.08;;
21107;SDS011;10712;52.944;9.098;2023-07-02T12:04:32;6.35;;;2.88;;
21107;SDS011;10712;52.944;9.098;2023-07-02T12:06:59;6.60;;;2.97;;
21107;SDS011;10712;52.944;9.098;2023-07-02T12:09:28;7.82;;;3.20;;
21107;SDS011;10712;52.944;9.098;2023-07-02T12:11:54;9.30;;;3.10;;
21107;SDS011;10712;52.944;9.098;2023-07-02T12:14:20;10.07;;;2.95;;
21107;SDS011;10712;52.944;9.098;2023-07-02T12:16:46;8.80;;;3.47;;
21107;SDS011;10712;52.944;9.098;2023-07-02T12:19:12;9.98;;;2.75;;
21107;SDS011;10712;52.944;9.098;2023-07-02T12:21:37;7.63;;;2.60;;
21107;SDS011;10712;52.944;9.098;2023-07-02T12:24:03;3.67;;;2.60;;
21107;SDS011;10712;52.944;9.098;2023-07-02T12:26:34;8.82;;;2.47;;
21107;SDS011;10712;52.944;9.098;2023-07-02T12:29:04;10.38;;;3.45;;
21107;SDS011;10712;52.944;9.098;2023-07-02T12:31:30;8.20;;;2.88;;
21107;SDS011;10712;52.944;9.098;2023-07-02T12:33:56;10.50;;;3.08;;
21107;SDS011;10712;52.944;9.098;2023-07-02T12:36:25;7.45;;;2.88;;
21107;SDS011;10712;52.944;9.098;2023-07-02T12:38:50;8.48;;;3.00;;
21107;SDS011;10712;52.944;9.098;2023-07-02T12:41:16;5.65;;;3.03;;
21107;SDS011;10712;52.944;9.098;2023-07-02T12:43:42;6.15;;;3.33;;
21107;SDS011;10712;52.944;9.098;2023-07-02T12:46:07;7.93;;;3.55;;
21107;SDS011;10712;52.944;9.098;2023-07-02T12:48:33;11.30;;;3.28;;
21107;SDS011;10712;52.944;9.098;2023-07-02T12:50:59;7.18;;;3.28;;
21107;SDS011;10712;52.944;9.098;2023-07-02T12:53:26;7.80;;;3.35;;
21107;SDS011;10712;52.944;9.098;2023-07-02T12:55:53;7.25;;;2.80;;
21107;SDS011;10712;52.944;9.098;2023-07-02T12:58:22;8.73;;;3.10;;
21107;SDS011;10712;52.944;9.098;2023-07-02T13:00:48;11.80;;;3.35;;
21107;SDS011;10712;52.944;9.098;2023-07-02T13:03:14;6.25;;;2.78;;
21107;SDS011;10712;52.944;9.098;2023-07-02T13:05:43;7.57;;;3.25;;
21107;SDS011;10712;52.944;9.098;2023-07-02T13:08:09;7.95;;;3.30;;
21107;SDS011;10712;52.944;9.098;2023-07-02T13:10:35;9.45;;;2.88;;
21107;SDS011;10712;52.944;9.098;2023-07-02T13:13:01;6.10;;;3.60;;
21107;SDS011;10712;52.944;9.098;2023-07-02T13:15:26;7.35;;;3.42;;
21107;SDS011;10712;52.944;9.098;2023-07-02T13:17:52;8.38;;;3.80;;
21107;SDS011;10712;52.944;9.098;2023-07-02T13:20:18;8.30;;;3.17;;
21107;SDS011;10712;52.944;9.098;2023-07-02T13:22:44;8.18;;;3.30;;
21107;SDS011;10712;52.944;9.098;2023-07-02T13:25:10;7.40;;;3.55;;
21107;SDS011;10712;52.944;9.098;2023-07-02T13:27:36;9.15;;;2.85;;
21107;SDS011;10712;52.944;9.098;2023-07-02T13:30:03;5.05;;;2.60;;
21107;SDS011;10712;52.944;9.098;2023-07-02T13:32:29;6.05;;;2.75;;
21107;SDS011;10712;52.944;9.098;2023-07-02T13:34:55;7.38;;;3.40;;
21107;SDS011;10712;52.944;9.098;2023-07-02T13:37:21;6.60;;;2.83;;
21107;SDS011;10712;52.944;9.098;2023-07-02T13:39:47;6.95;;;3.13;;
21107;SDS011;10712;52.944;9.098;2023-07-02T13:42:14;6.28;;;2.50;;
21107;SDS011;10712;52.944;9.098;2023-07-02T13:44:41;8.82;;;3.33;;
21107;SDS011;10712;52.944;9.098;2023-07-02T13:47:07;6.38;;;3.28;;
21107;SDS011;10712;52.944;9.098;2023-07-02T13:49:33;6.90;;;2.90;;
21107;SDS011;10712;52.944;9.098;2023-07-02T13:51:59;7.68;;;2.80;;
21107;SDS011;10712;52.944;9.098;2023-07-02T13:54:25;5.07;;;3.22;;
21107;SDS011;10712;52.944;9.098;2023-07-02T13:56:51;8.20;;;2.97;;
21107;SDS011;10712;52.944;9.098;2023-07-02T13:59:18;7.47;;;3.00;;
21107;SDS011;10712;52.944;9.098;2023-07-02T14:01:45;8.50;;;3.28;;
21107;SDS011;10712;52.944;9.098;2023-07-02T14:04:12;12.23;;;3.38;;
21107;SDS011;10712;52.944;9.098;2023-07-02T14:06:41;8.23;;;2.97;;
21107;SDS011;10712;52.944;9.098;2023-07-02T14:09:07;8.48;;;3.00;;
21107;SDS011;10712;52.944;9.098;2023-07-02T14:11:35;8.35;;;2.80;;
21107;SDS011;10712;52.944;9.098;2023-07-02T14:14:04;13.02;;;3.45;;
21107;SDS011;10712;52.944;9.098;2023-07-02T14:16:30;12.27;;;3.20;;
21107;SDS011;10712;52.944;9.098;2023-07-02T14:18:56;9.95;;;4.07;;
21107;SDS011;10712;52.944;9.098;2023-07-02T14:21:22;8.73;;;3.58;;
21107;SDS011;10712;52.944;9.098;2023-07-02T14:23:48;7.30;;;3.67;;
21107;SDS011;10712;52.944;9.098;2023-07-02T14:26:14;7.30;;;3.45;;
21107;SDS011;10712;52.944;9.098;2023-07-02T14:28:40;7.82;;;3.38;;
21107;SDS011;10712;52.944;9.098;2023-07-02T14:31:06;8.35;;;2.90;;
21107;SDS011;10712;52.944;9.098;2023-07-02T14:33:33;9.18;;;3.03;;
21107;SDS011;10712;52.944;9.098;2023-07-02T14:36:02;11.45;;;3.13;;
21107;SDS011;10712;52.944;9.098;2023-07-02T14:38:29;6.10;;;2.95;;
21107;SDS011;10712;52.944;9.098;2023-07-02T14:40:55;11.15;;;3.63;;
21107;SDS011;10712;52.944;9.098;2023-07-02T14:43:25;7.95;;;3.20;;
21107;SDS011;10712;52.944;9.098;2023-07-02T14:45:54;5.53;;;3.08;;
21107;SDS011;10712;52.944;9.098;2023-07-02T14:48:23;8.23;;;3.17;;
21107;SDS011;10712;52.944;9.098;2023-07-02T14:50:56;9.07;;;3.67;;